Portada
METAR-TAF:

METAR-TAF

Aeroports :

Palmer, Alaska, Estats Units d'Amèrica

latitud: 61-36N, longitud: 149-05W, altitud: 74 m

Observació

L'informe es va fer fa 55 minuts, a les 09:53 UTC
Vent 12 kt del Nord/Nord-Oest
Temperatura 0°C
Humitat 55%
Pressió 1005 hPa
Visibilitat: 16.1 km
Cel clar

METAR: PAAQ 150953Z AUTO 34012KT 10SM CLR 00/M08 A2969 RMK AO2 SLP058 T00001078 TSNO

Hora: 01:48 (10:48 UTC)

Pronòstic

L'informe es va fer fa 5 hores i 24 minuts, a les 05:24 UTC
Pronòstic vàlid del 15 a les 06 UTC al 16 a les 06 UTC
Vent 15 kt del Nord
Visibilitat: 10 km
Núvols disperses a una alçada de 7000 ft
Cel ennuvolat a una alçada de 10000 ft
A partir de les 15 a les 2100 UTC
Vent 11 kt del Nord
Visibilitat: 10 km
Núvols disperses a una alçada de 7000 ft
Cel ennuvolat a una alçada de 10000 ft

TAF: PAAQ 150524Z 1506/1606 36015KT P6SM SCT070 BKN100 FM152100 01011KT P6SM SCT070 BKN100

Observacions i pronòstics meteorològics de més de 4000 aeroports (METAR i TAF).

Les estacions disponibles són els punts grocs i vermells al mapa.

Posi el ratolí al punt desitjat per veure el nom de l'estació.

Feu clic per veure les observacions i els pronòstics meteorològics.

Per canviar el mapa: feu clic els botons verds amb una creu de color negre per apropar; al botó verd amb un guió per allunyar la imatge; o en les fletxes verdes per a mapes adjacents.


METAR-TAF: